createdAt,value
2018-06-24T00:02:19.458Z,15.20
2018-06-24T00:04:47.601Z,15.10
2018-06-24T00:07:15.712Z,15.20
2018-06-24T00:09:43.825Z,15.20
2018-06-24T00:14:39.895Z,15.20
2018-06-24T00:17:08.167Z,15.20
2018-06-24T00:19:36.279Z,15.20
2018-06-24T00:22:04.397Z,15.20
2018-06-24T00:24:32.528Z,15.20
2018-06-24T00:27:00.658Z,15.10
2018-06-24T00:29:28.769Z,15.20
2018-06-24T00:31:56.885Z,15.20
2018-06-24T00:34:25.012Z,15.20
2018-06-24T00:36:53.131Z,15.20
2018-06-24T00:39:21.345Z,15.20
2018-06-24T00:44:17.362Z,15.20
2018-06-24T00:46:45.489Z,15.20
2018-06-24T00:49:13.714Z,15.10
2018-06-24T00:51:41.837Z,15.10
2018-06-24T00:54:10.166Z,15.10
2018-06-24T00:56:38.294Z,15.20
2018-06-24T00:59:06.396Z,15.20
2018-06-24T01:01:34.490Z,15.20
2018-06-24T01:04:02.606Z,15.10
2018-06-24T01:06:30.713Z,15.10
2018-06-24T01:08:58.835Z,15.10
2018-06-24T01:11:26.955Z,15.00
2018-06-24T01:13:55.066Z,15.00
2018-06-24T01:16:23.195Z,14.90
2018-06-24T01:18:51.293Z,14.90
2018-06-24T01:21:19.411Z,14.90
2018-06-24T01:23:47.557Z,14.80
2018-06-24T01:26:15.642Z,14.60
2018-06-24T01:28:43.837Z,14.50
2018-06-24T01:31:11.932Z,14.50
2018-06-24T01:33:40.048Z,14.50
2018-06-24T01:36:08.177Z,14.50
2018-06-24T01:38:36.273Z,14.50
2018-06-24T01:41:04.405Z,14.50
2018-06-24T01:43:32.514Z,14.50
2018-06-24T01:46:00.791Z,14.50
2018-06-24T01:48:28.905Z,14.50
2018-06-24T01:50:57.022Z,14.60
2018-06-24T01:53:25.134Z,14.70
2018-06-24T01:55:53.258Z,14.70
2018-06-24T01:58:21.361Z,14.70
2018-06-24T02:00:49.476Z,14.80
2018-06-24T02:05:45.518Z,14.80
2018-06-24T02:08:13.634Z,14.80
2018-06-24T02:10:41.749Z,14.90
2018-06-24T02:13:09.867Z,14.80
2018-06-24T02:15:37.969Z,14.80
2018-06-24T02:18:06.090Z,14.80
2018-06-24T02:20:34.195Z,14.80
2018-06-24T02:23:02.317Z,14.80
2018-06-24T02:25:30.420Z,14.80
2018-06-24T02:27:58.533Z,14.90
2018-06-24T02:30:26.660Z,14.90
2018-06-24T02:32:54.761Z,14.90
2018-06-24T02:35:22.911Z,14.90
2018-06-24T02:37:51.015Z,14.90
2018-06-24T02:40:19.123Z,14.90
2018-06-24T02:42:47.230Z,14.90
2018-06-24T02:45:15.347Z,14.80
2018-06-24T02:47:43.445Z,14.80
2018-06-24T02:50:11.578Z,14.80
2018-06-24T02:52:39.692Z,14.80
2018-06-24T02:55:07.792Z,14.70
2018-06-24T02:57:35.987Z,14.80
2018-06-24T03:00:04.306Z,14.80
2018-06-24T03:02:32.413Z,14.70
2018-06-24T03:05:00.522Z,14.70
2018-06-24T03:07:28.656Z,14.70
2018-06-24T03:09:56.767Z,14.70
2018-06-24T03:12:24.889Z,14.60
2018-06-24T03:14:53.002Z,14.60
2018-06-24T03:17:21.102Z,14.60
2018-06-24T03:19:49.232Z,14.60
2018-06-24T03:22:17.329Z,14.50
2018-06-24T03:24:45.469Z,14.40
2018-06-24T03:27:13.593Z,14.40
2018-06-24T03:29:41.792Z,14.50
2018-06-24T03:32:09.885Z,14.50
2018-06-24T03:34:38.017Z,14.40
2018-06-24T03:37:06.135Z,14.50
2018-06-24T03:39:34.249Z,14.50
2018-06-24T03:42:02.385Z,14.50
2018-06-24T03:44:30.509Z,14.50
2018-06-24T03:46:58.634Z,14.50
2018-06-24T03:49:26.768Z,14.50
2018-06-24T03:51:54.881Z,14.50
2018-06-24T03:54:23.004Z,14.60
2018-06-24T03:56:51.118Z,14.50
2018-06-24T03:59:19.257Z,14.50
2018-06-24T04:01:47.374Z,14.60
2018-06-24T04:04:15.501Z,14.70
2018-06-24T04:06:43.613Z,14.70
2018-06-24T04:09:11.742Z,14.70
2018-06-24T04:11:39.990Z,14.70
2018-06-24T04:14:08.125Z,14.70
2018-06-24T04:16:36.382Z,14.70
2018-06-24T04:21:32.417Z,14.80
2018-06-24T04:24:00.545Z,14.80
2018-06-24T04:26:28.753Z,14.90
2018-06-24T04:28:56.904Z,14.90
2018-06-24T04:31:25.050Z,14.90
2018-06-24T04:33:53.184Z,15.00
2018-06-24T04:36:21.306Z,15.20
2018-06-24T04:38:49.419Z,15.40
2018-06-24T04:41:17.548Z,15.50
2018-06-24T04:43:45.668Z,15.60
2018-06-24T04:46:13.806Z,15.70
2018-06-24T04:48:41.926Z,15.60
2018-06-24T04:51:10.116Z,15.60
2018-06-24T04:53:38.221Z,15.60
2018-06-24T04:56:06.342Z,15.60
2018-06-24T04:58:34.458Z,15.50
2018-06-24T05:01:02.570Z,15.60
2018-06-24T05:03:30.826Z,15.50
2018-06-24T05:05:58.987Z,15.50
2018-06-24T05:08:27.254Z,15.50
2018-06-24T05:10:55.390Z,15.50
2018-06-24T05:13:23.512Z,15.50
2018-06-24T05:15:51.635Z,15.50
2018-06-24T05:18:19.806Z,15.50
2018-06-24T05:20:47.915Z,15.50
2018-06-24T05:23:16.037Z,15.50
2018-06-24T05:25:44.145Z,15.60
2018-06-24T05:28:12.254Z,15.60
2018-06-24T05:30:40.365Z,15.60
2018-06-24T05:33:08.508Z,15.70
2018-06-24T05:35:36.638Z,15.70
2018-06-24T05:38:04.781Z,15.80
2018-06-24T05:40:32.885Z,15.90
2018-06-24T05:45:28.991Z,15.90
2018-06-24T05:47:57.110Z,15.90
2018-06-24T05:52:53.114Z,16.00
2018-06-24T05:55:21.218Z,15.90
2018-06-24T05:57:49.337Z,15.90
2018-06-24T06:00:17.477Z,16.00
2018-06-24T06:02:45.649Z,15.90
2018-06-24T06:05:14.093Z,15.90
2018-06-24T06:07:42.206Z,16.00
2018-06-24T06:10:10.351Z,16.00
2018-06-24T06:12:38.425Z,16.00
2018-06-24T06:15:06.618Z,16.10
2018-06-24T06:17:34.750Z,16.20
2018-06-24T06:20:02.879Z,16.20
2018-06-24T06:22:32.385Z,16.20
2018-06-24T06:25:00.515Z,16.20
2018-06-24T06:27:28.627Z,16.20
2018-06-24T06:29:57.581Z,16.30
2018-06-24T06:32:26.422Z,16.30
2018-06-24T06:34:54.614Z,16.30
2018-06-24T06:37:22.742Z,16.40
2018-06-24T06:39:51.073Z,16.40
2018-06-24T06:42:19.182Z,16.40
2018-06-24T06:44:47.291Z,16.30
2018-06-24T06:47:15.394Z,16.40
2018-06-24T06:49:43.533Z,16.40
2018-06-24T06:52:11.637Z,16.40
2018-06-24T06:54:39.754Z,16.40
2018-06-24T06:57:09.142Z,16.40
2018-06-24T06:59:37.489Z,16.40
2018-06-24T07:02:05.951Z,16.40
2018-06-24T07:04:34.064Z,16.50
2018-06-24T07:07:02.206Z,16.50
2018-06-24T07:09:30.333Z,16.50
2018-06-24T07:11:58.513Z,16.50
2018-06-24T07:14:26.628Z,16.60
2018-06-24T07:16:54.854Z,16.60
2018-06-24T07:19:22.961Z,16.60
2018-06-24T07:21:51.076Z,16.60
2018-06-24T07:24:19.190Z,16.70
2018-06-24T07:26:47.455Z,16.70
2018-06-24T07:29:15.733Z,16.70
2018-06-24T07:31:43.865Z,16.80
2018-06-24T07:34:11.971Z,16.80
2018-06-24T07:36:40.190Z,16.70
2018-06-24T07:39:09.830Z,16.70
2018-06-24T07:44:05.896Z,16.80
2018-06-24T07:46:34.216Z,16.80
2018-06-24T07:49:02.337Z,16.80
2018-06-24T07:51:30.462Z,16.90
2018-06-24T07:53:58.604Z,16.90
2018-06-24T07:56:26.750Z,16.90
2018-06-24T07:58:54.863Z,16.90
2018-06-24T08:01:22.969Z,17.00
2018-06-24T08:03:51.072Z,17.00
2018-06-24T08:06:19.196Z,17.10
2018-06-24T08:08:47.341Z,17.10
2018-06-24T08:13:43.400Z,17.10
2018-06-24T08:16:11.583Z,17.20
2018-06-24T08:18:40.027Z,17.20
2018-06-24T08:21:08.226Z,17.20
2018-06-24T08:26:04.301Z,17.20
2018-06-24T08:28:32.405Z,17.20
2018-06-24T08:31:00.594Z,17.30
2018-06-24T08:33:28.878Z,17.30
2018-06-24T08:35:57.012Z,17.40
2018-06-24T08:38:25.136Z,17.40
2018-06-24T08:40:53.237Z,17.50
2018-06-24T08:43:21.343Z,17.50
2018-06-24T08:45:49.553Z,17.60
2018-06-24T08:48:17.660Z,17.60
2018-06-24T08:50:45.793Z,17.60
2018-06-24T08:53:13.906Z,17.70
2018-06-24T08:55:42.019Z,17.80
2018-06-24T08:58:10.145Z,17.80
2018-06-24T09:00:38.261Z,17.90
2018-06-24T09:05:34.249Z,18.00
2018-06-24T09:08:02.449Z,18.00
2018-06-24T09:10:30.535Z,18.00
2018-06-24T09:12:58.708Z,18.00
2018-06-24T09:15:26.840Z,18.00
2018-06-24T09:17:55.058Z,18.00
2018-06-24T09:20:23.161Z,18.10
2018-06-24T09:25:19.174Z,18.20
2018-06-24T09:27:47.285Z,18.20
2018-06-24T09:32:43.418Z,18.40
2018-06-24T09:35:17.974Z,18.50
2018-06-24T09:37:46.146Z,18.50
2018-06-24T09:40:22.689Z,18.50
2018-06-24T09:42:51.827Z,18.60
2018-06-24T09:45:22.189Z,18.70
2018-06-24T09:47:50.681Z,18.70
2018-06-24T09:50:38.516Z,18.70
2018-06-24T09:53:09.046Z,18.70
2018-06-24T09:55:51.961Z,18.70
2018-06-24T09:58:28.841Z,18.60
2018-06-24T10:01:02.091Z,18.60
2018-06-24T10:03:30.960Z,18.60
2018-06-24T10:05:59.327Z,18.50
2018-06-24T10:08:27.450Z,18.50
2018-06-24T10:10:55.592Z,18.50
2018-06-24T10:13:24.146Z,18.60
2018-06-24T10:15:52.253Z,18.60
2018-06-24T10:18:20.402Z,18.70
2018-06-24T10:20:48.633Z,18.80
2018-06-24T10:23:16.746Z,18.80
2018-06-24T10:25:44.860Z,18.80
2018-06-24T10:28:12.982Z,18.80
2018-06-24T10:30:41.109Z,18.80
2018-06-24T10:33:09.210Z,18.80
2018-06-24T10:35:37.324Z,18.80
2018-06-24T10:38:05.453Z,18.80
2018-06-24T10:40:33.638Z,18.90
2018-06-24T10:43:01.799Z,18.90
2018-06-24T10:45:29.956Z,18.90
2018-06-24T10:47:58.075Z,18.90
2018-06-24T10:50:26.250Z,18.90
2018-06-24T10:52:54.377Z,18.90
2018-06-24T10:55:22.477Z,18.80
2018-06-24T10:57:50.599Z,18.90
2018-06-24T11:00:18.788Z,18.90
2018-06-24T11:02:46.900Z,18.80
2018-06-24T11:05:15.010Z,18.80
2018-06-24T11:07:43.131Z,18.80
2018-06-24T11:10:11.257Z,18.80
2018-06-24T11:12:39.406Z,18.70
2018-06-24T11:15:07.510Z,18.70
2018-06-24T11:17:35.613Z,18.60
2018-06-24T11:20:03.740Z,18.60
2018-06-24T11:22:31.833Z,18.50
2018-06-24T11:24:59.937Z,18.50
2018-06-24T11:27:28.054Z,18.50
2018-06-24T11:29:56.182Z,18.50
2018-06-24T11:32:24.303Z,18.50
2018-06-24T11:34:52.426Z,18.50
2018-06-24T11:37:20.609Z,18.50
2018-06-24T11:39:48.716Z,18.50
2018-06-24T11:42:17.067Z,18.50
2018-06-24T11:44:45.202Z,18.50
2018-06-24T11:47:13.343Z,18.60
2018-06-24T11:49:41.540Z,18.50
2018-06-24T11:52:09.714Z,18.60
2018-06-24T11:54:37.852Z,18.50
2018-06-24T11:57:06.098Z,18.60
2018-06-24T11:59:34.222Z,18.60
2018-06-24T12:02:02.362Z,18.70
2018-06-24T12:04:30.503Z,18.70
2018-06-24T12:06:58.712Z,18.80
2018-06-24T12:09:26.746Z,18.80
2018-06-24T12:11:54.902Z,18.80
2018-06-24T12:14:23.014Z,18.80
2018-06-24T12:16:51.130Z,18.70
2018-06-24T12:19:19.248Z,18.70
2018-06-24T12:21:47.441Z,18.60
2018-06-24T12:24:15.554Z,18.60
2018-06-24T12:26:43.662Z,18.60
2018-06-24T12:29:12.077Z,18.70
2018-06-24T12:31:40.217Z,18.70
2018-06-24T12:34:08.316Z,18.70
2018-06-24T12:36:48.526Z,18.70
2018-06-24T12:39:19.117Z,18.70
2018-06-24T12:41:47.237Z,18.70
2018-06-24T12:44:15.353Z,18.60
2018-06-24T12:46:43.482Z,18.70
2018-06-24T12:49:12.018Z,18.60
2018-06-24T12:51:40.167Z,18.70
2018-06-24T12:54:08.348Z,18.70
2018-06-24T12:56:36.567Z,18.70
2018-06-24T12:59:05.086Z,18.70
2018-06-24T13:01:33.058Z,18.60
2018-06-24T13:04:01.204Z,18.60
2018-06-24T13:06:29.398Z,18.60
2018-06-24T13:08:57.539Z,18.60
2018-06-24T13:11:25.938Z,18.60
2018-06-24T13:13:54.121Z,18.70
2018-06-24T13:16:22.394Z,18.70
2018-06-24T13:18:50.526Z,18.70
2018-06-24T13:21:18.719Z,18.70
2018-06-24T13:23:46.824Z,18.70
2018-06-24T13:26:14.945Z,18.70
2018-06-24T13:28:43.053Z,18.70
2018-06-24T13:31:11.194Z,18.70
2018-06-24T13:33:39.324Z,18.70
2018-06-24T13:36:07.628Z,18.70
2018-06-24T13:38:36.009Z,18.60
2018-06-24T13:41:04.122Z,18.60
2018-06-24T13:43:32.257Z,18.60
2018-06-24T13:46:00.388Z,18.60
2018-06-24T13:48:28.545Z,18.50
2018-06-24T13:50:56.681Z,18.50
2018-06-24T13:53:24.785Z,18.50
2018-06-24T13:55:52.934Z,18.50
2018-06-24T13:58:21.054Z,18.50
2018-06-24T14:03:17.222Z,18.40
2018-06-24T14:05:45.338Z,18.40
2018-06-24T14:08:13.444Z,18.40
2018-06-24T14:10:41.685Z,18.40
2018-06-24T14:13:09.797Z,18.30
2018-06-24T14:18:05.854Z,18.40
2018-06-24T14:20:33.974Z,18.30
2018-06-24T14:23:02.078Z,18.30
2018-06-24T14:25:30.203Z,18.30
2018-06-24T14:27:58.321Z,18.30
2018-06-24T14:30:26.439Z,18.20
2018-06-24T14:32:54.538Z,18.30
2018-06-24T14:35:22.660Z,18.30
2018-06-24T14:37:50.778Z,18.20
2018-06-24T14:40:19.217Z,18.10
2018-06-24T14:42:47.337Z,18.10
2018-06-24T14:45:15.445Z,18.10
2018-06-24T14:47:43.607Z,18.10
2018-06-24T14:50:12.626Z,18.10
2018-06-24T14:52:40.733Z,18.10
2018-06-24T14:55:08.858Z,18.00
2018-06-24T14:57:36.988Z,18.00
2018-06-24T15:00:05.407Z,18.00
2018-06-24T15:02:35.301Z,17.90
2018-06-24T15:05:04.290Z,18.00
2018-06-24T15:07:33.202Z,17.90
2018-06-24T15:12:29.260Z,17.90
2018-06-24T15:14:57.445Z,17.90
2018-06-24T15:17:25.555Z,17.90
2018-06-24T15:19:53.666Z,17.80
2018-06-24T15:22:21.787Z,17.80
2018-06-24T15:24:49.908Z,17.80
2018-06-24T15:27:18.302Z,17.80
2018-06-24T15:29:46.546Z,17.70
2018-06-24T15:32:14.710Z,17.70
2018-06-24T15:34:42.834Z,17.70
2018-06-24T15:39:38.950Z,17.70
2018-06-24T15:42:07.102Z,17.70
2018-06-24T15:44:35.310Z,17.70
2018-06-24T15:47:03.526Z,17.70
2018-06-24T15:51:59.799Z,17.60
2018-06-24T15:54:28.039Z,17.60
2018-06-24T15:56:56.130Z,17.60
2018-06-24T15:59:24.314Z,17.60
2018-06-24T16:01:52.489Z,17.60
2018-06-24T16:04:20.595Z,17.60
2018-06-24T16:06:48.706Z,17.60
2018-06-24T16:09:16.849Z,17.60
2018-06-24T16:11:44.952Z,17.60
2018-06-24T16:14:13.089Z,17.60
2018-06-24T16:16:41.196Z,17.60
2018-06-24T16:19:09.329Z,17.60
2018-06-24T16:24:05.395Z,17.60
2018-06-24T16:26:33.514Z,17.60
2018-06-24T16:29:01.758Z,17.60
2018-06-24T16:31:29.849Z,17.60
2018-06-24T16:33:57.965Z,17.60
2018-06-24T16:36:26.110Z,17.60
2018-06-24T16:38:54.233Z,17.60
2018-06-24T16:41:22.339Z,17.50
2018-06-24T16:43:50.488Z,17.50
2018-06-24T16:46:18.642Z,17.50
2018-06-24T16:48:46.749Z,17.40
2018-06-24T16:51:14.900Z,17.40
2018-06-24T16:53:43.018Z,17.40
2018-06-24T16:56:11.283Z,17.40
2018-06-24T16:58:40.268Z,17.40
2018-06-24T17:01:07.510Z,17.40
2018-06-24T17:03:35.614Z,17.40
2018-06-24T17:06:03.730Z,17.40
2018-06-24T17:08:31.837Z,17.30
2018-06-24T17:10:59.949Z,17.40
2018-06-24T17:13:28.072Z,17.40
2018-06-24T17:15:56.202Z,17.40
2018-06-24T17:18:24.318Z,17.40
2018-06-24T17:20:52.566Z,17.40
2018-06-24T17:23:20.694Z,17.40
2018-06-24T17:25:48.799Z,17.40
2018-06-24T17:28:16.907Z,17.40
2018-06-24T17:30:45.028Z,17.40
2018-06-24T17:33:13.137Z,17.40
2018-06-24T17:35:41.251Z,17.40
2018-06-24T17:38:09.378Z,17.40
2018-06-24T17:40:37.493Z,17.40
2018-06-24T17:43:05.593Z,17.30
2018-06-24T17:45:33.797Z,17.30
2018-06-24T17:50:29.868Z,17.30
2018-06-24T17:52:57.975Z,17.20
2018-06-24T17:55:26.085Z,17.20
2018-06-24T17:57:54.221Z,17.20
2018-06-24T18:00:22.373Z,17.30
2018-06-24T18:02:50.506Z,17.30
2018-06-24T18:05:18.650Z,17.30
2018-06-24T18:07:46.793Z,17.20
2018-06-24T18:10:14.938Z,17.20
2018-06-24T18:12:43.074Z,17.20
2018-06-24T18:15:11.216Z,17.30
2018-06-24T18:17:39.415Z,17.20
2018-06-24T18:20:07.498Z,17.20
2018-06-24T18:22:35.646Z,17.30
2018-06-24T18:25:03.987Z,17.20
2018-06-24T18:27:32.200Z,17.30
2018-06-24T18:30:00.445Z,17.30
2018-06-24T18:32:28.612Z,17.30
2018-06-24T18:34:56.750Z,17.20
2018-06-24T18:39:52.849Z,17.20
2018-06-24T18:44:48.921Z,17.10
2018-06-24T18:47:17.055Z,17.10
2018-06-24T18:49:45.222Z,17.10
2018-06-24T18:52:13.452Z,17.00
2018-06-24T18:54:41.516Z,17.00
2018-06-24T18:57:09.654Z,17.00
2018-06-24T18:59:37.831Z,17.00
2018-06-24T19:02:05.925Z,16.90
2018-06-24T19:04:34.028Z,16.90
2018-06-24T19:07:02.403Z,16.90
2018-06-24T19:09:30.568Z,16.90
2018-06-24T19:11:58.658Z,16.90
2018-06-24T19:14:26.777Z,16.90
2018-06-24T19:16:54.891Z,16.80
2018-06-24T19:19:23.061Z,16.80
2018-06-24T19:21:51.150Z,16.90
2018-06-24T19:24:19.302Z,16.80
2018-06-24T19:26:47.437Z,16.80
2018-06-24T19:29:15.601Z,16.70
2018-06-24T19:31:43.702Z,16.80
2018-06-24T19:34:11.847Z,16.70
2018-06-24T19:36:39.967Z,16.80
2018-06-24T19:39:09.965Z,16.80
2018-06-24T19:41:38.221Z,16.80
2018-06-24T19:44:06.513Z,16.70
2018-06-24T19:46:34.785Z,16.80
2018-06-24T19:49:03.024Z,16.80
2018-06-24T19:51:31.152Z,16.70
2018-06-24T19:53:59.281Z,16.70
2018-06-24T19:56:27.452Z,16.70
2018-06-24T19:58:55.638Z,16.70
2018-06-24T20:01:23.811Z,16.70
2018-06-24T20:03:51.930Z,16.70
2018-06-24T20:06:20.049Z,16.70
2018-06-24T20:08:48.183Z,16.70
2018-06-24T20:11:16.298Z,16.70
2018-06-24T20:13:44.414Z,16.70
2018-06-24T20:16:12.550Z,16.70
2018-06-24T20:18:40.770Z,16.70
2018-06-24T20:21:08.891Z,16.70
2018-06-24T20:23:36.997Z,16.60
2018-06-24T20:26:05.227Z,16.60
2018-06-24T20:28:33.564Z,16.60
2018-06-24T20:31:01.736Z,16.50
2018-06-24T20:33:29.869Z,16.50
2018-06-24T20:35:57.990Z,16.50
2018-06-24T20:38:26.122Z,16.50
2018-06-24T20:40:54.257Z,16.50
2018-06-24T20:43:22.441Z,16.50
2018-06-24T20:45:50.553Z,16.50
2018-06-24T20:48:18.705Z,16.40
2018-06-24T20:50:46.871Z,16.40
2018-06-24T20:53:15.016Z,16.40
2018-06-24T20:55:43.146Z,16.40
2018-06-24T20:58:11.283Z,16.50
2018-06-24T21:00:39.397Z,16.50
2018-06-24T21:03:07.698Z,16.40
2018-06-24T21:05:36.070Z,16.50
2018-06-24T21:08:04.299Z,16.50
2018-06-24T21:10:32.411Z,16.50
2018-06-24T21:13:00.582Z,16.50
2018-06-24T21:15:28.726Z,16.50
2018-06-24T21:17:57.058Z,16.50
2018-06-24T21:20:25.166Z,16.50
2018-06-24T21:25:21.339Z,16.50
2018-06-24T21:27:49.442Z,16.50
2018-06-24T21:30:17.550Z,16.50
2018-06-24T21:32:45.677Z,16.40
2018-06-24T21:35:13.810Z,16.50
2018-06-24T21:37:41.909Z,16.40
2018-06-24T21:40:10.062Z,16.40
2018-06-24T21:42:38.334Z,16.40
2018-06-24T21:45:06.461Z,16.40
2018-06-24T21:47:34.573Z,16.40
2018-06-24T21:50:02.678Z,16.40
2018-06-24T21:52:30.799Z,16.40
2018-06-24T21:54:58.925Z,16.40
2018-06-24T21:59:54.933Z,16.30
2018-06-24T22:02:23.029Z,16.30
2018-06-24T22:04:51.147Z,16.30
2018-06-24T22:07:19.250Z,16.30
2018-06-24T22:09:47.359Z,16.30
2018-06-24T22:12:15.493Z,16.30
2018-06-24T22:14:43.622Z,16.30
2018-06-24T22:17:11.741Z,16.30
2018-06-24T22:19:39.826Z,16.30
2018-06-24T22:22:07.938Z,16.30
2018-06-24T22:24:36.055Z,16.30
2018-06-24T22:27:04.175Z,16.30
2018-06-24T22:29:32.362Z,16.30
2018-06-24T22:32:00.466Z,16.30
2018-06-24T22:34:28.561Z,16.30
2018-06-24T22:36:56.665Z,16.20
2018-06-24T22:39:24.805Z,16.20
2018-06-24T22:44:20.814Z,16.20
2018-06-24T22:46:48.922Z,16.10
2018-06-24T22:49:17.021Z,16.10
2018-06-24T22:51:45.146Z,16.10
2018-06-24T22:54:13.281Z,16.10
2018-06-24T22:56:41.378Z,16.10
2018-06-24T22:59:20.985Z,16.10
2018-06-24T23:01:49.106Z,16.10
2018-06-24T23:04:17.248Z,16.10
2018-06-24T23:06:45.478Z,16.10
2018-06-24T23:09:13.588Z,16.10
2018-06-24T23:11:41.693Z,16.10
2018-06-24T23:14:10.920Z,16.10
2018-06-24T23:16:38.990Z,16.10
2018-06-24T23:19:07.165Z,16.10
2018-06-24T23:21:35.314Z,16.10
2018-06-24T23:24:03.414Z,16.20
2018-06-24T23:26:31.532Z,16.10
2018-06-24T23:28:59.699Z,16.10
2018-06-24T23:33:55.771Z,16.20
2018-06-24T23:38:51.754Z,16.20
2018-06-24T23:41:19.883Z,16.20
2018-06-24T23:43:47.990Z,16.10
2018-06-24T23:46:16.123Z,16.10
2018-06-24T23:48:44.234Z,16.20
2018-06-24T23:51:12.367Z,16.10
2018-06-24T23:53:40.533Z,16.10
2018-06-24T23:56:08.642Z,16.10
2018-06-24T23:58:36.910Z,16.10
